WATT

Kupang/El Tari Airport

Airport
ICAO code
WATT
IATA Code
KOE
Summary
ICAO Region
APAC
ICAO Territory
Location

Kupang, Nusa Tenggara Timur

Serving
Kupang
Elevation
335 ft
Coordinates
10° 10' 18" S , 123° 40' 16" E
Metar
Observation
WATT 282100Z 17004KT 6000 -TSRA FEW015CB BKN015 25/25 Q1008 NOSIG RMK CB OVER THE FIELD
Station
EL TARI
Date/Time
2022-11-28 21:00:00
Wind direction
170°
Wind speed
04 kts
Lowest cloud amount
few clouds
Temperature
25°C
Dew point
25°C
Humidity
100%
QNH
1008 hPa
Weather condition
n/a

El Tari International Airport is an airport in Kupang, East Nusa Tenggara, Indonesia.

Airport map

Aerial View

SKYbrary Partners:

Safety knowledge contributed by: